Time;durP1;ratioP1;P1;durP2;ratioP2;P2;SDS_P1;SDS_P2;PMS_P1;PMS_P2;Temp;Humidity;BMP_temperature;BMP_pressure;BME280_temperature;BME280_humidity;BME280_pressure;Samples;Min_cycle;Max_cycle;Signal;HPM_P1;HPM_P2
2021/03/13 00:00:01;;;;;;;2.20;0.30;;;5.20;99.90;;;;;;5090895;28;20405;-48
2021/03/13 00:02:26;;;;;;;2.37;0.30;;;5.20;99.90;;;;;;5088515;28;20422;-49
2021/03/13 00:04:52;;;;;;;2.30;0.30;;;5.30;99.90;;;;;;5091117;28;20866;-49
2021/03/13 00:07:18;;;;;;;2.23;0.20;;;5.30;99.90;;;;;;5089572;28;20855;-49
2021/03/13 00:09:45;;;;;;;2.30;0.40;;;5.20;99.90;;;;;;5089666;28;20389;-48
2021/03/13 00:12:11;;;;;;;2.40;0.40;;;5.20;99.90;;;;;;5089406;28;20408;-49
2021/03/13 00:14:36;;;;;;;2.80;0.60;;;5.20;99.90;;;;;;5088950;28;20748;-49
2021/03/13 00:17:02;;;;;;;2.50;0.50;;;6.10;99.90;;;;;;5090497;28;20382;-49
2021/03/13 00:19:27;;;;;;;3.40;0.60;;;5.20;99.90;;;;;;5088730;28;21025;-50
2021/03/13 00:21:53;;;;;;;2.42;0.50;;;5.40;99.90;;;;;;5090193;28;20409;-49
2021/03/13 00:24:19;;;;;;;3.20;0.50;;;5.20;99.90;;;;;;5090694;28;20470;-51
2021/03/13 00:26:44;;;;;;;2.60;0.40;;;5.30;99.90;;;;;;5088475;28;20447;-49
2021/03/13 00:29:10;;;;;;;2.60;0.50;;;5.30;99.90;;;;;;5071308;28;20489;-49
2021/03/13 00:31:35;;;;;;;2.43;0.43;;;6.40;99.90;;;;;;5088582;28;20766;-49
2021/03/13 00:34:01;;;;;;;2.72;0.60;;;5.40;99.90;;;;;;5089618;28;20463;-49
2021/03/13 00:36:27;;;;;;;2.40;0.50;;;5.40;99.90;;;;;;5089298;28;20431;-49
2021/03/13 00:38:52;;;;;;;2.60;0.50;;;5.40;99.90;;;;;;5088715;28;20411;-49
2021/03/13 00:41:18;;;;;;;3.30;0.63;;;5.50;99.90;;;;;;5072207;28;20911;-49
2021/03/13 00:43:43;;;;;;;4.00;0.80;;;5.60;99.90;;;;;;5088240;28;20477;-50
2021/03/13 00:46:09;;;;;;;2.70;0.60;;;5.60;99.90;;;;;;5090304;28;20382;-49
2021/03/13 00:48:35;;;;;;;2.60;0.50;;;5.60;99.90;;;;;;5088167;28;20390;-49
2021/03/13 00:51:00;;;;;;;3.90;0.80;;;5.60;99.90;;;;;;5088957;28;20800;-49
2021/03/13 00:53:26;;;;;;;3.10;0.77;;;5.60;99.90;;;;;;5089303;28;20380;-50
2021/03/13 00:55:51;;;;;;;3.30;0.80;;;5.70;99.90;;;;;;5088661;28;20405;-49
2021/03/13 00:58:17;;;;;;;2.80;0.70;;;5.70;99.90;;;;;;5090250;28;20382;-49
2021/03/13 01:00:43;;;;;;;3.40;0.70;;;5.90;99.90;;;;;;5089322;28;20987;-52
2021/03/13 01:03:08;;;;;;;3.23;1.03;;;6.70;99.90;;;;;;5090546;28;20890;-49
2021/03/13 01:05:35;;;;;;;2.83;0.65;;;5.80;99.90;;;;;;5095942;28;20378;-49
2021/03/13 01:08:01;;;;;;;3.03;0.60;;;5.80;99.90;;;;;;5095489;28;20474;-53
2021/03/13 01:10:35;;;;;;;3.80;0.77;;;5.80;99.90;;;;;;5096475;28;20510;-49
2021/03/13 01:13:02;;;;;;;4.18;0.57;;;6.00;99.90;;;;;;5095566;28;20441;-49
2021/03/13 01:15:28;;;;;;;2.50;0.50;;;5.90;99.90;;;;;;5095968;28;20478;-49
2021/03/13 01:17:55;;;;;;;2.60;0.40;;;5.90;99.90;;;;;;5096982;28;20381;-49
2021/03/13 01:20:22;;;;;;;5.70;0.50;;;5.90;99.90;;;;;;5095328;28;20398;-50
2021/03/13 01:22:49;;;;;;;2.20;0.30;;;6.00;99.90;;;;;;5095937;28;20783;-49
2021/03/13 01:25:15;;;;;;;3.08;0.40;;;6.00;99.90;;;;;;5096302;28;20631;-49
2021/03/13 01:27:41;;;;;;;2.75;0.40;;;6.10;99.90;;;;;;5095138;28;20826;-50
2021/03/13 01:30:21;;;;;;;2.70;0.40;;;6.00;99.90;;;;;;5095093;28;20425;-49
2021/03/13 01:32:50;;;;;;;2.50;0.40;;;6.00;99.90;;;;;;5095647;28;20389;-49
2021/03/13 01:35:17;;;;;;;3.70;0.40;;;5.80;99.90;;;;;;5078751;28;20390;-49
2021/03/13 01:37:43;;;;;;;2.40;0.35;;;6.70;99.90;;;;;;5094490;28;20447;-49
2021/03/13 01:40:11;;;;;;;2.60;0.50;;;5.90;99.90;;;;;;5095970;28;20448;-52
2021/03/13 01:42:39;;;;;;;2.50;0.40;;;5.90;99.90;;;;;;5095242;28;20418;-49
2021/03/13 01:45:07;;;;;;;2.58;0.40;;;5.90;99.90;;;;;;5096666;28;20409;-49
2021/03/13 01:47:32;;;;;;;4.00;0.50;;;5.90;99.90;;;;;;5094297;28;20433;-49
2021/03/13 01:49:58;;;;;;;2.30;0.40;;;5.80;99.90;;;;;;5096713;28;20422;-49
2021/03/13 01:52:24;;;;;;;3.13;0.30;;;6.00;99.90;;;;;;5094309;28;20466;-55
2021/03/13 01:54:50;;;;;;;2.42;0.40;;;5.90;99.90;;;;;;5095803;28;20385;-49
2021/03/13 01:57:19;;;;;;;2.40;0.40;;;5.90;99.90;;;;;;5076997;28;20401;-49
2021/03/13 01:59:46;;;;;;;2.50;0.40;;;5.90;99.90;;;;;;5095917;28;20376;-49
2021/03/13 02:02:14;;;;;;;4.23;0.50;;;5.80;99.90;;;;;;5094768;28;20421;-49
2021/03/13 02:04:40;;;;;;;2.40;0.40;;;5.80;99.90;;;;;;5095336;28;20413;-53
2021/03/13 02:07:24;;;;;;;6.57;0.60;;;7.80;99.90;;;;;;5095530;28;20476;-49
2021/03/13 02:10:02;;;;;;;3.22;0.40;;;5.60;99.90;;;;;;5086731;28;20442;-49
2021/03/13 02:12:52;;;;;;;3.55;0.60;;;5.60;99.90;;;;;;5087218;28;20390;-49
2021/03/13 02:15:31;;;;;;;2.50;0.40;;;5.70;99.90;;;;;;5092416;28;20390;-49
2021/03/13 02:18:04;;;;;;;2.90;0.57;;;5.70;99.90;;;;;;5091970;28;20397;-50
2021/03/13 02:20:36;;;;;;;2.80;0.70;;;5.80;99.90;;;;;;5091732;28;20743;-49
2021/03/13 02:23:03;;;;;;;2.80;0.60;;;5.80;99.90;;;;;;5093066;28;20596;-50
2021/03/13 02:25:48;;;;;;;3.70;0.60;;;5.80;99.90;;;;;;5090917;28;20426;-49
2021/03/13 02:28:50;;;;;;;4.50;0.50;;;5.80;99.90;;;;;;5085015;28;20409;-49
2021/03/13 02:31:18;;;;;;;3.25;0.65;;;5.80;99.90;;;;;;5090798;28;20386;-49
2021/03/13 02:33:47;;;;;;;3.05;0.63;;;5.80;99.90;;;;;;5092445;28;20507;-52
2021/03/13 02:36:19;;;;;;;3.40;0.73;;;5.80;99.90;;;;;;5093321;28;20467;-49
2021/03/13 02:38:53;;;;;;;3.80;0.80;;;5.70;99.90;;;;;;5091106;28;20790;-49
2021/03/13 02:41:31;;;;;;;4.20;0.90;;;5.80;99.90;;;;;;5091768;28;20405;-49
2021/03/13 02:44:01;;;;;;;4.53;1.00;;;5.80;99.90;;;;;;5091472;28;20390;-49
2021/03/13 02:46:30;;;;;;;4.38;0.98;;;5.90;99.90;;;;;;5091892;28;20848;-56
2021/03/13 02:48:57;;;;;;;4.50;1.10;;;5.90;99.90;;;;;;5091270;28;20417;-49
2021/03/13 02:51:27;;;;;;;4.82;0.80;;;6.00;99.90;;;;;;5091111;28;20398;-55
2021/03/13 02:53:56;;;;;;;3.72;0.80;;;6.00;99.90;;;;;;5092448;28;20378;-49
2021/03/13 02:56:23;;;;;;;3.35;0.75;;;6.10;99.90;;;;;;5092584;28;20390;-51
2021/03/13 02:58:53;;;;;;;6.20;1.23;;;6.10;99.90;;;;;;5090448;28;20529;-49
2021/03/13 03:01:20;;;;;;;3.40;0.73;;;6.20;99.90;;;;;;5092074;28;20473;-49
2021/03/13 03:03:49;;;;;;;5.28;1.20;;;6.30;99.90;;;;;;5091052;28;20389;-50
2021/03/13 03:06:18;;;;;;;4.40;0.90;;;6.30;99.90;;;;;;5090441;28;20729;-49
2021/03/13 03:08:44;;;;;;;4.57;1.70;;;6.30;99.90;;;;;;5057001;28;20463;-50
2021/03/13 03:11:11;;;;;;;4.43;0.73;;;6.30;99.90;;;;;;5091835;28;20397;-49
2021/03/13 03:13:36;;;;;;;4.10;1.10;;;6.30;99.90;;;;;;5089978;28;20478;-50
2021/03/13 03:16:06;;;;;;;6.90;1.00;;;7.30;99.90;;;;;;5091944;28;20378;-49
2021/03/13 03:18:33;;;;;;;4.20;0.90;;;6.30;99.90;;;;;;5089764;28;20456;-49
2021/03/13 03:20:59;;;;;;;4.88;0.90;;;6.40;99.90;;;;;;5091322;28;20366;-49
2021/03/13 03:23:25;;;;;;;4.70;1.10;;;6.40;99.90;;;;;;5090213;28;20422;-56
2021/03/13 03:25:53;;;;;;;3.50;0.90;;;6.50;99.90;;;;;;5090429;28;20484;-50
2021/03/13 03:28:20;;;;;;;3.85;0.90;;;7.30;99.90;;;;;;5071626;28;20430;-49
2021/03/13 03:30:48;;;;;;;4.60;1.13;;;6.60;99.90;;;;;;5089650;28;21076;-49
2021/03/13 03:33:13;;;;;;;5.95;1.10;;;6.60;99.90;;;;;;5091533;28;20382;-51
2021/03/13 03:35:40;;;;;;;4.88;0.88;;;6.60;99.90;;;;;;5090792;28;20385;-50
2021/03/13 03:38:07;;;;;;;3.85;0.90;;;6.60;99.90;;;;;;5089995;28;20390;-49
2021/03/13 03:40:34;;;;;;;5.20;1.20;;;6.60;99.90;;;;;;5071079;28;20394;-50
2021/03/13 03:43:13;;;;;;;4.00;0.90;;;6.70;99.90;;;;;;5091196;28;20394;-49
2021/03/13 03:45:41;;;;;;;4.82;1.00;;;6.70;99.90;;;;;;5089403;28;20446;-50
2021/03/13 03:48:13;;;;;;;6.63;0.93;;;6.80;99.90;;;;;;5091371;28;20366;-50
2021/03/13 03:50:42;;;;;;;4.10;1.30;;;7.00;99.90;;;;;;5090081;28;20423;-50
2021/03/13 03:53:17;;;;;;;4.07;1.20;;;6.90;99.90;;;;;;5090149;28;20496;-48
2021/03/13 03:55:46;;;;;;;4.70;0.90;;;6.90;99.90;;;;;;5088942;28;21261;-48
2021/03/13 03:58:15;;;;;;;4.40;0.98;;;7.00;99.90;;;;;;5090798;28;20723;-47
2021/03/13 04:00:43;;;;;;;4.10;1.00;;;7.00;99.90;;;;;;5090405;28;20890;-49
2021/03/13 04:03:13;;;;;;;4.60;0.90;;;7.00;99.90;;;;;;5089763;28;20454;-49
2021/03/13 04:05:41;;;;;;;3.40;1.00;;;7.00;99.90;;;;;;5090198;28;20374;-49
2021/03/13 04:08:10;;;;;;;4.63;1.00;;;7.10;99.90;;;;;;5091149;28;20375;-49
2021/03/13 04:10:36;;;;;;;5.93;1.20;;;7.10;99.90;;;;;;5089209;28;20394;-49
2021/03/13 04:13:02;;;;;;;5.47;1.20;;;7.10;99.90;;;;;;5090148;28;20378;-49
2021/03/13 04:15:29;;;;;;;7.43;0.90;;;7.10;99.90;;;;;;5088969;28;20397;-50
2021/03/13 04:17:55;;;;;;;4.32;0.77;;;7.10;99.90;;;;;;5071189;28;20946;-49
2021/03/13 04:20:21;;;;;;;4.53;0.90;;;7.00;99.90;;;;;;5090934;28;20402;-54
2021/03/13 04:22:49;;;;;;;3.07;0.73;;;7.00;99.90;;;;;;5088266;28;20410;-50
2021/03/13 04:25:16;;;;;;;5.38;1.17;;;7.10;99.90;;;;;;5090350;28;20382;-49
2021/03/13 04:27:45;;;;;;;4.40;0.80;;;7.20;99.90;;;;;;5089328;28;20451;-49
2021/03/13 04:30:15;;;;;;;3.97;0.80;;;7.20;99.90;;;;;;5089050;28;20745;-49
2021/03/13 04:32:43;;;;;;;2.97;0.80;;;7.10;99.90;;;;;;5089897;28;20410;-49
2021/03/13 04:35:10;;;;;;;3.50;0.70;;;7.00;99.90;;;;;;5089263;28;20421;-49
2021/03/13 04:37:37;;;;;;;3.40;0.90;;;7.00;99.90;;;;;;5088569;28;20416;-49
2021/03/13 04:40:04;;;;;;;4.90;0.90;;;7.00;99.90;;;;;;5090759;28;20389;-50
2021/03/13 04:42:30;;;;;;;4.20;0.90;;;7.00;99.90;;;;;;5089632;28;20405;-53
2021/03/13 04:44:56;;;;;;;3.00;0.60;;;7.00;99.90;;;;;;5090360;28;20370;-49
2021/03/13 04:47:22;;;;;;;4.05;0.80;;;7.00;99.90;;;;;;5090416;28;20437;-49
2021/03/13 04:49:48;;;;;;;6.35;1.10;;;6.90;99.90;;;;;;5089954;28;20888;-49
2021/03/13 04:52:15;;;;;;;4.80;0.90;;;6.90;99.90;;;;;;5090222;28;20485;-49
2021/03/13 04:54:40;;;;;;;4.40;0.88;;;6.90;99.90;;;;;;5088833;28;20378;-50
2021/03/13 04:57:06;;;;;;;5.93;0.77;;;6.80;99.90;;;;;;5089965;28;20390;-49
2021/03/13 04:59:32;;;;;;;3.50;0.80;;;6.80;99.90;;;;;;5089435;28;20374;-49
2021/03/13 05:01:59;;;;;;;3.05;0.93;;;6.80;99.90;;;;;;5089847;28;20449;-49
2021/03/13 05:04:24;;;;;;;4.30;0.80;;;6.80;99.90;;;;;;5090258;28;20389;-49
2021/03/13 05:06:50;;;;;;;3.08;0.80;;;6.80;99.90;;;;;;5089377;28;20374;-49
2021/03/13 05:09:16;;;;;;;3.30;0.60;;;6.80;99.90;;;;;;5089599;28;20413;-49
2021/03/13 05:11:41;;;;;;;4.88;0.70;;;6.70;99.90;;;;;;5089249;28;20393;-49
2021/03/13 05:14:07;;;;;;;3.55;0.70;;;6.80;99.90;;;;;;5090003;28;20716;-49
2021/03/13 05:16:33;;;;;;;4.10;0.90;;;6.80;99.90;;;;;;5089230;28;20451;-49
2021/03/13 05:18:59;;;;;;;4.03;0.70;;;6.80;99.90;;;;;;5090071;28;20771;-49
2021/03/13 05:21:24;;;;;;;6.25;1.00;;;6.70;99.90;;;;;;5089598;28;20857;-51
2021/03/13 05:23:50;;;;;;;3.90;0.60;;;6.80;99.90;;;;;;5088830;28;20706;-51
2021/03/13 05:26:16;;;;;;;2.70;0.60;;;6.70;99.90;;;;;;5089700;28;20398;-50
2021/03/13 05:28:42;;;;;;;4.10;0.90;;;6.70;99.90;;;;;;5089345;28;20498;-49
2021/03/13 05:31:08;;;;;;;3.20;0.70;;;6.70;99.90;;;;;;5090030;28;20910;-49
2021/03/13 05:33:33;;;;;;;4.75;0.80;;;6.80;99.90;;;;;;5088559;28;20458;-50
2021/03/13 05:35:59;;;;;;;3.10;0.70;;;6.70;99.90;;;;;;5089809;28;20374;-49
2021/03/13 05:38:24;;;;;;;3.70;0.70;;;6.80;99.90;;;;;;5089949;28;20881;-49
2021/03/13 05:40:50;;;;;;;4.13;0.80;;;6.90;99.90;;;;;;5088966;28;20378;-49
2021/03/13 05:43:16;;;;;;;5.35;0.82;;;6.90;99.90;;;;;;5089501;28;20418;-49
2021/03/13 05:45:43;;;;;;;3.90;0.68;;;7.00;99.90;;;;;;5089259;28;20370;-49
2021/03/13 05:48:09;;;;;;;8.60;1.00;;;7.00;99.90;;;;;;5089782;28;20475;-49
2021/03/13 05:50:36;;;;;;;4.10;0.55;;;7.00;99.90;;;;;;5090437;28;20378;-49
2021/03/13 05:53:03;;;;;;;5.20;0.80;;;7.00;99.90;;;;;;5093507;28;20389;-49
2021/03/13 05:55:30;;;;;;;6.20;0.80;;;7.10;99.90;;;;;;5093338;28;20447;-55
2021/03/13 05:57:56;;;;;;;3.60;0.70;;;7.10;99.90;;;;;;5093074;28;20401;-49
2021/03/13 06:00:23;;;;;;;5.45;0.73;;;7.20;99.90;;;;;;5093650;28;20374;-49
2021/03/13 06:02:52;;;;;;;2.72;0.50;;;7.30;99.90;;;;;;5092535;28;20410;-48
2021/03/13 06:05:18;;;;;;;3.85;0.50;;;7.30;99.90;;;;;;5093175;28;20457;-48
2021/03/13 06:07:44;;;;;;;3.22;0.60;;;7.30;99.90;;;;;;5092543;28;20931;-48
2021/03/13 06:10:14;;;;;;;3.30;0.50;;;7.50;99.90;;;;;;5093281;28;20843;-49
2021/03/13 06:12:40;;;;;;;3.20;0.60;;;7.40;99.90;;;;;;5092460;28;20464;-50
2021/03/13 06:15:06;;;;;;;4.13;0.68;;;7.40;99.90;;;;;;5084479;28;20435;-49
2021/03/13 06:17:51;;;;;;;5.60;0.82;;;7.50;99.90;;;;;;5081687;28;20417;-52
2021/03/13 06:20:36;;;;;;;4.80;0.70;;;7.60;99.90;;;;;;5091529;28;20382;-49
2021/03/13 06:23:08;;;;;;;3.80;0.80;;;7.60;99.90;;;;;;5092957;28;20401;-49
2021/03/13 06:25:34;;;;;;;4.57;0.80;;;7.70;99.90;;;;;;5092008;28;20478;-49
2021/03/13 06:28:00;;;;;;;5.07;0.80;;;7.70;99.90;;;;;;5092621;28;20394;-49
2021/03/13 06:30:31;;;;;;;5.03;1.10;;;7.80;99.90;;;;;;5092655;28;20384;-49
2021/03/13 06:32:57;;;;;;;5.80;0.80;;;7.80;99.90;;;;;;5092557;28;20374;-49
2021/03/13 06:35:30;;;;;;;5.00;0.70;;;7.90;99.90;;;;;;5092399;28;20397;-49
2021/03/13 06:38:12;;;;;;;6.45;0.82;;;8.00;99.90;;;;;;5073581;28;20484;-49
2021/03/13 06:40:38;;;;;;;8.15;0.85;;;8.00;99.90;;;;;;5090630;28;20838;-49
2021/03/13 06:43:24;;;;;;;4.10;0.80;;;8.10;99.90;;;;;;5091813;28;20502;-49
2021/03/13 06:45:59;;;;;;;5.47;0.80;;;8.10;99.90;;;;;;5091259;28;20476;-49
2021/03/13 06:48:42;;;;;;;5.80;0.80;;;8.10;99.90;;;;;;5090020;28;20420;-49
2021/03/13 06:51:31;;;;;;;5.20;1.10;;;8.10;99.90;;;;;;5090710;28;20445;-49
2021/03/13 06:54:08;;;;;;;6.30;1.30;;;8.10;99.90;;;;;;5084584;28;20405;-53
2021/03/13 06:57:00;;;;;;;4.18;1.00;;;8.10;99.90;;;;;;5078444;28;20443;-49
2021/03/13 06:59:41;;;;;;;6.20;0.90;;;8.20;99.90;;;;;;5081406;28;20468;-49
2021/03/13 07:02:10;;;;;;;4.40;0.70;;;8.20;99.90;;;;;;5068299;28;20816;-49
2021/03/13 07:04:43;;;;;;;4.22;1.15;;;8.20;99.90;;;;;;5070732;28;20467;-52
2021/03/13 07:07:25;;;;;;;9.35;1.00;;;8.50;99.90;;;;;;5071249;28;20884;-50
2021/03/13 07:09:55;;;;;;;5.25;1.10;;;8.80;99.90;;;;;;5069291;28;20468;-48
2021/03/13 07:12:22;;;;;;;5.03;0.80;;;8.90;99.90;;;;;;5062743;28;20913;-49
2021/03/13 07:14:47;;;;;;;5.37;0.80;;;8.80;99.90;;;;;;5054074;28;20941;-49
2021/03/13 07:17:14;;;;;;;3.40;0.80;;;8.80;99.90;;;;;;5070511;28;20487;-49
2021/03/13 07:19:41;;;;;;;4.95;1.00;;;8.90;99.90;;;;;;5060035;28;20393;-52
2021/03/13 07:22:07;;;;;;;4.30;0.90;;;9.10;99.90;;;;;;5055949;28;20407;-49
2021/03/13 07:24:34;;;;;;;5.07;1.25;;;9.10;99.90;;;;;;5069611;28;20441;-55
2021/03/13 07:27:01;;;;;;;5.85;0.90;;;9.70;99.90;;;;;;5070925;28;20454;-49
2021/03/13 07:29:27;;;;;;;4.60;0.70;;;10.30;99.90;;;;;;5067818;28;20431;-50
2021/03/13 07:32:02;;;;;;;4.72;0.75;;;11.40;99.90;;;;;;5069909;28;20554;-49
2021/03/13 07:34:36;;;;;;;5.05;0.70;;;11.60;99.90;;;;;;5069432;28;20478;-49
2021/03/13 07:37:03;;;;;;;4.93;0.90;;;10.30;99.90;;;;;;5070788;28;20413;-49
2021/03/13 07:39:41;;;;;;;4.60;0.80;;;10.10;99.90;;;;;;5069421;28;20399;-49
2021/03/13 07:42:17;;;;;;;4.47;0.70;;;10.30;99.90;;;;;;5070345;28;20400;-54
2021/03/13 07:44:44;;;;;;;5.40;0.80;;;10.00;99.90;;;;;;5068859;28;20411;-50
2021/03/13 07:47:15;;;;;;;4.90;0.90;;;9.70;99.90;;;;;;5069680;28;20391;-49
2021/03/13 07:49:41;;;;;;;3.45;0.60;;;9.70;99.90;;;;;;5068463;28;20486;-50
2021/03/13 07:52:08;;;;;;;6.20;0.87;;;9.70;99.90;;;;;;5070876;28;20379;-49
2021/03/13 07:54:49;;;;;;;5.38;1.00;;;9.50;99.90;;;;;;5068173;28;20402;-56
2021/03/13 07:57:18;;;;;;;3.20;0.70;;;9.30;99.90;;;;;;5069937;28;20454;-49
2021/03/13 07:59:51;;;;;;;4.50;0.70;;;9.20;99.90;;;;;;5068998;28;22549;-49
2021/03/13 08:02:31;;;;;;;3.10;0.60;;;9.20;99.90;;;;;;5078526;28;20418;-49
2021/03/13 08:05:06;;;;;;;4.35;0.80;;;9.10;99.90;;;;;;5070186;28;20932;-49
2021/03/13 08:07:51;;;;;;;6.15;0.90;;;9.10;99.90;;;;;;5075702;28;20389;-56
2021/03/13 08:10:42;;;;;;;4.65;0.65;;;9.40;99.90;;;;;;5087103;28;20408;-49
2021/03/13 08:13:10;;;;;;;3.72;0.80;;;9.40;99.90;;;;;;5088837;28;20547;-49
2021/03/13 08:15:43;;;;;;;3.00;0.60;;;9.80;99.90;;;;;;5089712;28;20871;-50
2021/03/13 08:18:12;;;;;;;4.20;0.60;;;10.20;99.90;;;;;;5090845;28;20547;-49
2021/03/13 08:20:38;;;;;;;3.30;0.60;;;9.80;99.90;;;;;;5088173;28;20401;-49
2021/03/13 08:23:19;;;;;;;5.10;0.88;;;9.90;99.90;;;;;;5089068;28;20410;-49
2021/03/13 08:25:56;;;;;;;3.90;0.70;;;10.00;99.90;;;;;;5085743;28;20894;-49
2021/03/13 08:28:47;;;;;;;3.80;0.60;;;9.90;99.90;;;;;;5079365;28;20434;-53
2021/03/13 08:31:45;;;;;;;3.63;0.50;;;9.70;99.90;;;;;;5088405;28;20478;-50
2021/03/13 08:34:11;;;;;;;2.92;0.80;;;10.20;99.90;;;;;;5084792;28;20489;-49
2021/03/13 08:36:44;;;;;;;3.37;0.70;;;10.30;99.90;;;;;;5080002;28;20951;-51
2021/03/13 08:39:11;;;;;;;3.00;0.60;;;10.20;99.90;;;;;;5085226;28;20465;-50
2021/03/13 08:41:43;;;;;;;4.90;0.60;;;10.20;99.90;;;;;;5066087;28;20411;-55
2021/03/13 08:44:11;;;;;;;3.00;0.60;;;10.50;99.90;;;;;;5082669;28;20455;-49
2021/03/13 08:46:56;;;;;;;3.58;0.60;;;10.60;99.90;;;;;;5081228;28;20830;-50
2021/03/13 08:49:26;;;;;;;3.10;0.40;;;11.00;99.90;;;;;;5080600;28;20449;-51
2021/03/13 08:52:09;;;;;;;3.10;0.60;;;11.00;99.90;;;;;;5075471;28;20393;-50
2021/03/13 08:54:40;;;;;;;3.40;0.60;;;10.60;99.90;;;;;;5082069;28;20571;-53
2021/03/13 08:57:14;;;;;;;3.90;0.70;;;10.40;99.90;;;;;;5058043;28;20411;-49
2021/03/13 08:59:55;;;;;;;4.90;0.60;;;10.20;99.90;;;;;;5077439;28;20422;-49
2021/03/13 09:02:25;;;;;;;4.18;0.70;;;10.10;99.90;;;;;;5077099;28;20418;-49
2021/03/13 09:05:10;;;;;;;5.40;0.60;;;10.10;99.90;;;;;;5081286;28;21195;-52
2021/03/13 09:07:36;;;;;;;3.10;0.60;;;10.10;99.90;;;;;;5078336;28;20434;-50
2021/03/13 09:10:04;;;;;;;3.07;0.50;;;9.90;99.90;;;;;;5080096;28;20387;-49
2021/03/13 09:12:32;;;;;;;5.80;0.60;;;9.90;99.90;;;;;;5072911;28;20392;-49
2021/03/13 09:15:00;;;;;;;3.70;0.60;;;9.40;99.90;;;;;;5078968;28;20396;-49
2021/03/13 09:17:29;;;;;;;2.80;0.40;;;10.10;99.90;;;;;;5076980;28;20394;-50
2021/03/13 09:19:55;;;;;;;3.30;0.60;;;10.00;99.90;;;;;;5084751;28;20386;-50
2021/03/13 09:22:23;;;;;;;3.70;0.60;;;10.10;99.90;;;;;;5084145;28;20414;-49
2021/03/13 09:25:01;;;;;;;3.90;0.60;;;10.10;99.90;;;;;;5086899;28;20374;-49
2021/03/13 09:27:29;;;;;;;3.90;0.70;;;10.30;99.90;;;;;;5076178;28;20404;-50
2021/03/13 09:29:56;;;;;;;3.67;0.60;;;10.40;99.90;;;;;;5089772;28;20714;-49
2021/03/13 09:32:23;;;;;;;5.40;1.20;;;10.50;99.90;;;;;;5086442;28;20388;-49
2021/03/13 09:34:51;;;;;;;3.42;0.90;;;10.50;99.90;;;;;;5080762;28;20405;-50
2021/03/13 09:37:27;;;;;;;3.60;0.80;;;10.50;99.90;;;;;;5085835;28;20378;-49
2021/03/13 09:40:03;;;;;;;3.57;0.80;;;10.40;99.90;;;;;;5086008;28;20397;-49
2021/03/13 09:42:29;;;;;;;3.42;0.60;;;10.40;99.90;;;;;;5085335;28;20415;-49
2021/03/13 09:45:05;;;;;;;5.30;0.80;;;10.60;99.90;;;;;;5087954;28;20398;-49
2021/03/13 09:47:40;;;;;;;3.70;0.50;;;10.70;99.90;;;;;;5084490;28;20390;-56
2021/03/13 09:50:13;;;;;;;4.28;0.82;;;10.80;99.90;;;;;;5085099;28;20377;-49
2021/03/13 09:52:43;;;;;;;2.95;0.60;;;10.80;99.90;;;;;;5061263;28;20412;-50
2021/03/13 09:55:10;;;;;;;3.80;0.93;;;10.60;99.90;;;;;;5087648;28;20402;-50
2021/03/13 09:57:37;;;;;;;3.53;0.77;;;10.70;99.90;;;;;;5083246;28;20404;-50
2021/03/13 10:00:10;;;;;;;2.80;0.50;;;10.80;99.90;;;;;;5085697;28;20383;-51
2021/03/13 10:02:37;;;;;;;2.80;0.50;;;10.90;99.90;;;;;;5081769;28;20426;-51
2021/03/13 10:05:04;;;;;;;3.20;0.60;;;10.70;99.90;;;;;;5080945;28;20455;-50
2021/03/13 10:07:30;;;;;;;3.20;0.60;;;10.70;99.90;;;;;;5080140;28;20399;-53
2021/03/13 10:10:00;;;;;;;6.40;0.60;;;10.50;99.90;;;;;;5087854;28;20760;-52
2021/03/13 10:12:31;;;;;;;3.55;0.90;;;10.50;99.90;;;;;;5085668;28;20468;-50
2021/03/13 10:15:17;;;;;;;3.33;0.70;;;10.50;99.90;;;;;;5086792;28;20398;-50
2021/03/13 10:18:02;;;;;;;4.55;0.70;;;10.40;99.90;;;;;;5080918;28;20390;-50
2021/03/13 10:20:49;;;;;;;3.83;0.50;;;10.40;99.90;;;;;;5083670;28;20386;-51
2021/03/13 10:23:17;;;;;;;4.07;0.65;;;10.40;99.90;;;;;;5088812;28;20501;-51
2021/03/13 10:25:52;;;;;;;3.88;0.60;;;10.50;99.90;;;;;;5081892;28;20406;-51
2021/03/13 10:28:18;;;;;;;5.50;0.90;;;10.50;99.90;;;;;;5088113;28;20402;-50
2021/03/13 10:30:45;;;;;;;3.20;0.70;;;10.40;99.90;;;;;;5086822;28;20446;-50
2021/03/13 10:33:12;;;;;;;3.20;0.60;;;10.40;99.90;;;;;;5090267;28;20927;-50
2021/03/13 10:35:38;;;;;;;2.80;0.50;;;10.40;99.90;;;;;;5081391;28;20385;-50
2021/03/13 10:38:17;;;;;;;3.35;0.50;;;10.50;99.90;;;;;;5089634;28;20887;-50
2021/03/13 10:40:46;;;;;;;4.60;0.57;;;10.50;99.90;;;;;;5085413;28;20744;-52
2021/03/13 10:43:35;;;;;;;2.88;0.50;;;10.50;99.90;;;;;;5088465;28;20450;-50
2021/03/13 10:46:02;;;;;;;3.20;0.70;;;10.60;99.90;;;;;;5085651;28;20438;-50
2021/03/13 10:48:30;;;;;;;4.70;0.70;;;10.50;99.90;;;;;;5079017;28;20379;-50
2021/03/13 10:50:57;;;;;;;2.92;0.50;;;10.70;99.90;;;;;;5081020;28;20394;-50
2021/03/13 10:53:33;;;;;;;3.15;0.50;;;10.60;99.90;;;;;;5091890;28;20386;-50
2021/03/13 10:56:09;;;;;;;4.88;0.60;;;12.50;99.90;;;;;;5074272;28;20402;-48
2021/03/13 10:58:46;;;;;;;3.70;0.50;;;10.80;99.90;;;;;;5080528;28;20439;-58
2021/03/13 11:01:12;;;;;;;4.00;0.60;;;10.80;99.90;;;;;;5082198;28;20376;-50
2021/03/13 11:03:37;;;;;;;4.20;0.90;;;10.70;99.90;;;;;;5085763;28;20398;-49
2021/03/13 11:06:03;;;;;;;4.83;0.80;;;10.70;99.90;;;;;;5091751;28;20739;-49
2021/03/13 11:08:29;;;;;;;3.40;0.50;;;10.60;99.90;;;;;;5089870;28;20405;-48
2021/03/13 11:10:57;;;;;;;4.53;0.75;;;10.60;99.90;;;;;;5072349;28;20622;-48
2021/03/13 11:13:23;;;;;;;3.38;0.60;;;10.60;99.90;;;;;;5091759;28;20374;-49
2021/03/13 11:15:49;;;;;;;4.00;0.60;;;10.70;99.90;;;;;;5089044;28;20843;-49
2021/03/13 11:18:15;;;;;;;4.45;0.90;;;10.80;99.90;;;;;;5071032;28;20386;-49
2021/03/13 11:20:42;;;;;;;3.40;0.60;;;10.90;99.90;;;;;;5070663;28;20725;-52
2021/03/13 11:23:08;;;;;;;3.10;0.50;;;10.90;99.90;;;;;;5090122;28;20420;-48
2021/03/13 11:25:34;;;;;;;3.80;0.70;;;10.90;99.90;;;;;;5090101;28;20402;-56
2021/03/13 11:27:59;;;;;;;3.10;0.52;;;10.90;99.90;;;;;;5089516;28;20507;-49
2021/03/13 11:30:26;;;;;;;4.00;0.60;;;10.90;99.90;;;;;;5091421;28;20450;-49
2021/03/13 11:32:51;;;;;;;4.60;0.68;;;10.90;99.90;;;;;;5070307;28;20503;-49
2021/03/13 11:35:20;;;;;;;3.60;0.60;;;10.90;99.90;;;;;;5089808;28;20405;-54
2021/03/13 11:37:48;;;;;;;4.40;0.70;;;11.00;99.90;;;;;;5089950;28;20394;-49
2021/03/13 11:40:14;;;;;;;3.80;0.50;;;10.90;99.90;;;;;;5091306;28;20414;-49
2021/03/13 11:42:40;;;;;;;3.53;0.70;;;10.70;99.90;;;;;;5083756;28;20486;-49
2021/03/13 11:45:10;;;;;;;3.80;0.50;;;10.60;99.90;;;;;;5088994;28;20448;-56
2021/03/13 11:47:36;;;;;;;3.30;0.50;;;10.70;99.90;;;;;;5083046;28;20384;-56
2021/03/13 11:50:09;;;;;;;4.90;0.40;;;10.60;99.90;;;;;;5085050;28;20402;-49
2021/03/13 11:52:35;;;;;;;3.78;0.70;;;10.60;99.90;;;;;;5087070;28;20378;-56
2021/03/13 11:55:02;;;;;;;2.80;0.40;;;10.70;99.90;;;;;;5081079;28;20393;-49
2021/03/13 11:57:28;;;;;;;3.90;0.80;;;10.50;99.90;;;;;;5087090;28;20394;-49
2021/03/13 11:59:53;;;;;;;3.30;0.70;;;10.50;99.90;;;;;;5089472;28;20382;-49
2021/03/13 12:02:19;;;;;;;3.40;0.60;;;10.50;99.90;;;;;;5089569;28;20413;-49
2021/03/13 12:04:46;;;;;;;4.68;0.80;;;10.50;99.90;;;;;;5088475;28;20420;-49
2021/03/13 12:07:12;;;;;;;5.50;0.60;;;10.50;99.90;;;;;;5091115;28;20370;-49
2021/03/13 12:09:38;;;;;;;3.10;0.60;;;10.50;99.90;;;;;;5088218;28;20492;-50
2021/03/13 12:12:06;;;;;;;3.50;0.40;;;10.50;99.90;;;;;;5090319;28;20370;-49
2021/03/13 12:14:35;;;;;;;3.10;0.70;;;10.40;99.90;;;;;;5071039;28;20755;-51
2021/03/13 12:17:02;;;;;;;3.80;0.70;;;10.50;99.90;;;;;;5090522;28;20400;-50
2021/03/13 12:19:28;;;;;;;3.00;0.38;;;10.50;99.90;;;;;;5090365;28;20810;-50
2021/03/13 12:21:54;;;;;;;3.33;0.60;;;10.30;99.90;;;;;;5089080;28;20406;-49
2021/03/13 12:24:20;;;;;;;3.40;0.40;;;10.30;99.90;;;;;;5089133;28;20398;-49
2021/03/13 12:26:46;;;;;;;3.20;0.40;;;10.20;99.90;;;;;;5086300;28;20382;-50
2021/03/13 12:29:12;;;;;;;3.30;0.60;;;10.30;99.90;;;;;;5079818;28;20392;-49
2021/03/13 12:31:37;;;;;;;3.42;0.73;;;10.70;99.90;;;;;;5079221;28;20480;-57
2021/03/13 12:34:04;;;;;;;4.38;0.80;;;10.40;99.90;;;;;;5088674;28;20381;-50
2021/03/13 12:36:30;;;;;;;3.00;0.60;;;10.70;99.90;;;;;;5089026;28;20394;-50
2021/03/13 12:38:55;;;;;;;3.10;0.50;;;11.10;99.90;;;;;;5071212;28;20417;-51
2021/03/13 12:41:21;;;;;;;3.17;0.50;;;11.30;99.90;;;;;;5088877;28;20401;-50
2021/03/13 12:43:47;;;;;;;4.10;0.50;;;11.00;99.90;;;;;;5088949;28;20386;-53
2021/03/13 12:46:16;;;;;;;3.00;0.70;;;10.50;99.90;;;;;;5080567;28;20385;-51
2021/03/13 12:48:46;;;;;;;2.70;0.45;;;10.20;99.90;;;;;;5087990;28;20404;-50
2021/03/13 12:51:13;;;;;;;4.40;0.80;;;10.00;99.90;;;;;;5085747;28;20396;-53
2021/03/13 12:53:39;;;;;;;3.97;0.60;;;9.70;99.90;;;;;;5071234;28;20404;-58
2021/03/13 12:56:05;;;;;;;3.30;0.60;;;9.20;99.90;;;;;;5088440;28;20954;-52
2021/03/13 12:58:30;;;;;;;3.72;0.60;;;8.70;99.90;;;;;;5090278;28;20435;-50
2021/03/13 13:00:56;;;;;;;5.10;0.60;;;8.30;99.90;;;;;;5087578;28;20460;-50
2021/03/13 13:03:22;;;;;;;3.60;0.80;;;7.80;99.90;;;;;;5063630;28;20427;-49